Jerome, Missouri
Current Conditions -  °F | °C
As of 11:59 AM on Friday 28 Nov 2014 (Local Time) from KTBN Reporting Station
Clear Clear  
Wind Chill: 52°   Ceiling: Unl
Heat Index: 52°   Visibility: 10mi
Dew Point: 32°   Wind: 16mph
Humidity: 47%   Direction: 220°SW
Pressure: 30.02"   Gusts: 23mph
Location:  37.93°N, 91.98°W
Report Text: KTBN 281759Z AUTO 22014G20KT 190V260 10SM CLR 11/00 A3002 RMK AO2 WSHFT 56 $
Loading
Personal Weather Stations






























Interactive Weather Map New forecast layout! Learn more

10-Day Weather Forecast

Advertisements
Track Severe Weather on mobile